createdAt,value
2019-06-20T00:01:35.629Z,35.77
2019-06-20T00:04:25.174Z,32.23
2019-06-20T00:07:14.595Z,31.77
2019-06-20T00:10:04.033Z,34.57
2019-06-20T00:13:00.295Z,33.63
2019-06-20T00:15:43.772Z,26.93
2019-06-20T00:18:32.305Z,28.57
2019-06-20T00:21:20.953Z,23.63
2019-06-20T00:24:09.822Z,24.17
2019-06-20T00:26:58.962Z,22.10
2019-06-20T00:29:47.847Z,16.27
2019-06-20T00:32:36.854Z,17.20
2019-06-20T00:35:25.670Z,13.17
2019-06-20T00:38:15.175Z,11.33
2019-06-20T00:41:04.624Z,9.50
2019-06-20T00:43:53.445Z,8.60
2019-06-20T00:46:42.718Z,8.47
2019-06-20T00:49:31.427Z,9.23
2019-06-20T00:52:20.646Z,8.07
2019-06-20T00:55:09.739Z,9.87
2019-06-20T00:57:58.294Z,9.40
2019-06-20T01:00:48.004Z,8.47
2019-06-20T01:03:36.744Z,7.30
2019-06-20T01:06:25.801Z,7.10
2019-06-20T01:09:14.784Z,7.43
2019-06-20T01:12:03.643Z,7.17
2019-06-20T01:14:52.502Z,6.93
2019-06-20T01:17:41.561Z,10.17
2019-06-20T01:20:30.122Z,8.13
2019-06-20T01:23:19.338Z,7.03
2019-06-20T01:26:08.402Z,12.37
2019-06-20T01:28:57.257Z,8.60
2019-06-20T01:31:46.159Z,12.53
2019-06-20T01:34:34.893Z,10.97
2019-06-20T01:37:23.845Z,10.70
2019-06-20T01:40:13.114Z,12.40
2019-06-20T01:43:01.475Z,13.10
2019-06-20T01:45:50.728Z,16.80
2019-06-20T01:48:39.707Z,14.70
2019-06-20T01:51:28.561Z,17.17
2019-06-20T01:54:16.775Z,14.60
2019-06-20T01:57:05.729Z,16.73
2019-06-20T01:59:54.671Z,16.27
2019-06-20T02:02:44.201Z,18.30
2019-06-20T02:05:33.093Z,16.63
2019-06-20T02:08:21.948Z,19.30
2019-06-20T02:11:11.545Z,16.27
2019-06-20T02:14:07.204Z,18.73
2019-06-20T02:16:50.565Z,19.90
2019-06-20T02:19:39.721Z,21.63
2019-06-20T02:22:28.609Z,23.03
2019-06-20T02:25:17.709Z,19.73
2019-06-20T02:28:06.376Z,22.20
2019-06-20T02:30:55.360Z,23.40
2019-06-20T02:33:44.161Z,25.43
2019-06-20T02:36:32.841Z,28.40
2019-06-20T02:39:21.810Z,24.37
2019-06-20T02:42:10.435Z,22.97
2019-06-20T02:44:59.567Z,25.57
2019-06-20T02:47:48.373Z,24.53
2019-06-20T02:50:38.925Z,21.47
2019-06-20T02:53:27.433Z,22.90
2019-06-20T02:56:16.336Z,23.30
2019-06-20T02:59:05.273Z,24.80
2019-06-20T03:01:54.473Z,28.53
2019-06-20T03:04:45.660Z,26.90
2019-06-20T03:07:33.770Z,27.27
2019-06-20T03:10:22.369Z,27.33
2019-06-20T03:13:11.160Z,23.60
2019-06-20T03:16:00.982Z,28.50
2019-06-20T03:18:50.506Z,26.07
2019-06-20T03:21:39.046Z,27.07
2019-06-20T03:24:27.940Z,28.43
2019-06-20T03:27:16.955Z,28.57
2019-06-20T03:30:07.254Z,31.23
2019-06-20T03:32:55.964Z,28.50
2019-06-20T03:35:44.888Z,30.03
2019-06-20T03:38:33.528Z,29.30
2019-06-20T03:41:22.728Z,29.40
2019-06-20T03:44:11.622Z,32.43
2019-06-20T03:47:00.653Z,34.33
2019-06-20T03:49:49.566Z,30.13
2019-06-20T03:52:38.712Z,32.37
2019-06-20T03:55:28.052Z,34.20
2019-06-20T03:58:17.442Z,36.40
2019-06-20T04:01:06.747Z,36.47
2019-06-20T04:03:56.033Z,34.77
2019-06-20T04:06:45.474Z,37.13
2019-06-20T04:09:34.253Z,37.63
2019-06-20T04:12:23.509Z,37.00
2019-06-20T04:15:18.883Z,36.67
2019-06-20T04:18:03.508Z,33.10
2019-06-20T04:20:52.866Z,34.53
2019-06-20T04:23:42.051Z,37.83
2019-06-20T04:26:30.981Z,35.93
2019-06-20T04:29:19.757Z,35.90
2019-06-20T04:32:08.868Z,37.10
2019-06-20T04:34:57.882Z,36.20
2019-06-20T04:37:47.452Z,38.03
2019-06-20T04:40:36.805Z,36.87
2019-06-20T04:43:26.156Z,38.80
2019-06-20T04:46:26.596Z,42.23
2019-06-20T04:49:15.191Z,37.60
2019-06-20T04:52:03.988Z,40.80
2019-06-20T04:54:53.660Z,37.73
2019-06-20T04:57:42.587Z,44.47
2019-06-20T05:00:31.886Z,44.23
2019-06-20T05:03:20.541Z,45.57
2019-06-20T05:06:09.611Z,44.63
2019-06-20T05:08:58.725Z,43.57
2019-06-20T05:11:48.178Z,41.03
2019-06-20T05:14:37.179Z,42.23
2019-06-20T05:17:26.608Z,39.90
2019-06-20T05:20:16.083Z,43.90
2019-06-20T05:23:05.004Z,43.70
2019-06-20T05:25:54.103Z,41.27
2019-06-20T05:28:43.286Z,43.97
2019-06-20T05:31:32.192Z,41.00
2019-06-20T05:34:21.347Z,43.50
2019-06-20T05:37:10.057Z,50.50
2019-06-20T05:39:59.838Z,40.60
2019-06-20T05:42:48.819Z,40.60
2019-06-20T05:45:38.075Z,44.63
2019-06-20T05:48:28.508Z,40.47
2019-06-20T05:51:18.441Z,36.60
2019-06-20T05:54:07.955Z,40.57
2019-06-20T05:56:56.170Z,40.67
2019-06-20T05:59:45.234Z,45.33
2019-06-20T06:02:35.106Z,44.53
2019-06-20T06:05:24.047Z,44.97
2019-06-20T06:08:12.775Z,44.90
2019-06-20T06:11:01.482Z,40.50
2019-06-20T06:13:50.441Z,46.73
2019-06-20T06:16:39.678Z,46.00
2019-06-20T06:19:28.142Z,45.57
2019-06-20T06:22:17.286Z,40.47
2019-06-20T06:25:06.755Z,41.33
2019-06-20T06:27:55.591Z,39.27
2019-06-20T06:30:44.820Z,41.73
2019-06-20T06:33:34.005Z,38.50
2019-06-20T06:36:22.664Z,42.27
2019-06-20T06:39:11.807Z,36.30
2019-06-20T06:42:00.492Z,38.47
2019-06-20T06:44:50.459Z,39.17
2019-06-20T06:47:40.179Z,42.33
2019-06-20T06:50:29.809Z,35.97
2019-06-20T06:53:19.258Z,34.67
2019-06-20T06:56:08.557Z,34.70
2019-06-20T06:58:57.502Z,40.03
2019-06-20T07:01:46.637Z,32.50
2019-06-20T07:04:35.457Z,34.70
2019-06-20T07:07:24.765Z,28.90
2019-06-20T07:10:14.175Z,28.60
2019-06-20T07:13:02.773Z,31.40
2019-06-20T07:15:51.617Z,31.57
2019-06-20T07:18:40.298Z,30.13
2019-06-20T07:21:29.890Z,30.60
2019-06-20T07:24:18.565Z,37.43
2019-06-20T07:27:07.361Z,26.77
2019-06-20T07:29:56.506Z,27.20
2019-06-20T07:32:46.081Z,25.60
2019-06-20T07:35:35.404Z,22.07
2019-06-20T07:38:24.001Z,25.80
2019-06-20T07:41:13.352Z,26.43
2019-06-20T07:44:01.846Z,30.23
2019-06-20T07:46:51.020Z,27.77
2019-06-20T07:49:39.979Z,25.97
2019-06-20T07:52:28.897Z,29.90
2019-06-20T07:55:18.398Z,36.10
2019-06-20T07:58:07.783Z,23.80
2019-06-20T08:00:57.226Z,22.97
2019-06-20T08:03:45.862Z,25.73
2019-06-20T08:06:34.962Z,20.43
2019-06-20T08:09:24.787Z,20.70
2019-06-20T08:12:13.884Z,19.67
2019-06-20T08:15:14.386Z,24.10
2019-06-20T08:17:53.811Z,22.73
2019-06-20T08:20:43.248Z,20.63
2019-06-20T08:23:32.560Z,21.17
2019-06-20T08:26:21.816Z,18.83
2019-06-20T08:29:20.811Z,18.90
2019-06-20T08:32:04.419Z,21.90
2019-06-20T08:34:53.876Z,18.27
2019-06-20T08:37:43.779Z,17.13
2019-06-20T08:40:39.267Z,22.30
2019-06-20T08:43:29.315Z,19.30
2019-06-20T08:46:18.314Z,20.77
2019-06-20T08:49:07.611Z,20.10
2019-06-20T08:51:57.367Z,19.70
2019-06-20T08:54:46.293Z,17.80
2019-06-20T08:57:37.075Z,15.23
2019-06-20T09:00:28.205Z,22.40
2019-06-20T09:03:20.782Z,25.33
2019-06-20T09:06:11.093Z,25.53
2019-06-20T09:09:02.371Z,22.23
2019-06-20T09:11:52.335Z,20.70
2019-06-20T09:14:42.370Z,18.50
2019-06-20T09:17:31.938Z,15.40
2019-06-20T09:20:23.687Z,14.87
2019-06-20T09:23:12.976Z,18.80
2019-06-20T09:26:03.901Z,12.93
2019-06-20T09:28:54.387Z,14.50
2019-06-20T09:31:43.573Z,16.53
2019-06-20T09:34:34.496Z,16.53
2019-06-20T09:37:23.340Z,13.87
2019-06-20T09:40:12.803Z,11.80
2019-06-20T09:43:02.897Z,12.40
2019-06-20T09:45:53.119Z,11.87
2019-06-20T09:48:43.360Z,12.30
2019-06-20T09:51:33.245Z,14.87
2019-06-20T09:54:22.518Z,11.70
2019-06-20T09:57:11.546Z,12.50
2019-06-20T10:00:09.606Z,13.43
2019-06-20T10:02:53.688Z,13.70
2019-06-20T10:05:42.053Z,17.70
2019-06-20T10:08:31.585Z,11.27
2019-06-20T10:11:20.271Z,10.50
2019-06-20T10:14:09.844Z,10.90
2019-06-20T10:16:59.128Z,10.00
2019-06-20T10:19:49.881Z,15.00
2019-06-20T10:22:38.542Z,12.23
2019-06-20T10:25:28.685Z,16.10
2019-06-20T10:28:17.198Z,11.13
2019-06-20T10:31:06.187Z,11.70
2019-06-20T10:33:55.063Z,10.17
2019-06-20T10:36:45.384Z,9.60
2019-06-20T10:39:35.392Z,9.37
2019-06-20T10:42:25.202Z,10.30
2019-06-20T10:45:14.299Z,13.40
2019-06-20T10:48:03.616Z,10.60
2019-06-20T10:50:52.794Z,14.73
2019-06-20T10:53:43.096Z,10.57
2019-06-20T10:56:32.706Z,12.10
2019-06-20T10:59:21.526Z,12.10
2019-06-20T11:02:11.194Z,11.80
2019-06-20T11:05:00.214Z,15.53
2019-06-20T11:07:49.983Z,10.33
2019-06-20T11:10:40.342Z,11.60
2019-06-20T11:13:30.732Z,11.23
2019-06-20T11:16:20.119Z,13.73
2019-06-20T11:19:09.269Z,12.50
2019-06-20T11:21:58.552Z,14.00
2019-06-20T11:24:47.427Z,11.30
2019-06-20T11:27:38.707Z,14.87
2019-06-20T11:30:44.523Z,15.30
2019-06-20T11:33:20.325Z,14.50
2019-06-20T11:36:09.353Z,13.20
2019-06-20T11:38:58.963Z,12.60
2019-06-20T11:41:48.515Z,14.20
2019-06-20T11:44:38.915Z,16.33
2019-06-20T11:47:27.834Z,14.10
2019-06-20T11:50:18.882Z,15.03
2019-06-20T11:53:08.422Z,16.40
2019-06-20T11:55:58.627Z,14.87
2019-06-20T11:58:47.435Z,12.40
2019-06-20T12:01:39.580Z,13.40
2019-06-20T12:04:27.468Z,16.27
2019-06-20T12:07:16.676Z,13.93
2019-06-20T12:10:08.183Z,14.10
2019-06-20T12:12:57.572Z,12.83
2019-06-20T12:15:46.670Z,13.07
2019-06-20T12:18:35.749Z,13.50
2019-06-20T12:21:25.190Z,16.57
2019-06-20T12:24:14.615Z,15.87
2019-06-20T12:27:03.555Z,14.10
2019-06-20T12:29:52.512Z,17.23
2019-06-20T12:32:42.480Z,14.93
2019-06-20T12:35:31.441Z,18.17
2019-06-20T12:38:20.789Z,16.37
2019-06-20T12:41:09.803Z,20.07
2019-06-20T12:43:58.813Z,16.40
2019-06-20T12:46:49.100Z,16.90
2019-06-20T12:49:40.117Z,16.67
2019-06-20T12:52:29.187Z,14.87
2019-06-20T12:55:18.593Z,14.20
2019-06-20T12:58:08.646Z,12.57
2019-06-20T13:00:57.982Z,12.83
2019-06-20T13:03:48.029Z,13.70
2019-06-20T13:06:37.679Z,13.30
2019-06-20T13:09:28.332Z,14.67
2019-06-20T13:12:17.999Z,13.43
2019-06-20T13:15:07.600Z,12.47
2019-06-20T13:17:57.028Z,11.93
2019-06-20T13:20:48.451Z,12.13
2019-06-20T13:23:41.271Z,10.13
2019-06-20T13:26:29.787Z,9.47
2019-06-20T13:29:19.178Z,9.40
2019-06-20T13:32:07.996Z,8.83
2019-06-20T13:34:57.134Z,7.67
2019-06-20T13:37:47.850Z,9.00
2019-06-20T13:40:39.596Z,9.93
2019-06-20T13:43:28.441Z,10.03
2019-06-20T13:46:18.141Z,12.17
2019-06-20T13:49:07.094Z,9.60
2019-06-20T13:51:56.370Z,9.23
2019-06-20T13:54:46.658Z,10.67
2019-06-20T13:57:36.969Z,10.23
2019-06-20T14:00:27.424Z,11.60
2019-06-20T14:03:16.908Z,9.10
2019-06-20T14:06:06.695Z,10.03
2019-06-20T14:08:56.773Z,9.27
2019-06-20T14:11:47.288Z,11.40
2019-06-20T14:14:37.294Z,9.30
2019-06-20T14:17:26.720Z,9.63
2019-06-20T14:20:16.491Z,8.77
2019-06-20T14:23:05.875Z,10.13
2019-06-20T14:25:56.019Z,10.23
2019-06-20T14:28:46.097Z,10.37
2019-06-20T14:31:35.308Z,11.23
2019-06-20T14:34:24.165Z,9.37
2019-06-20T14:37:13.570Z,7.93
2019-06-20T14:40:02.894Z,7.70
2019-06-20T14:42:52.390Z,7.97
2019-06-20T14:45:42.080Z,8.53
2019-06-20T14:48:31.809Z,7.17
2019-06-20T14:51:20.479Z,6.40
2019-06-20T14:54:09.535Z,6.23
2019-06-20T14:56:58.830Z,6.97
2019-06-20T14:59:48.373Z,7.20
2019-06-20T15:02:39.113Z,6.83
2019-06-20T15:05:28.223Z,5.80
2019-06-20T15:08:16.952Z,6.10
2019-06-20T15:11:06.228Z,6.80
2019-06-20T15:13:55.657Z,5.70
2019-06-20T15:16:46.187Z,6.40
2019-06-20T15:19:35.732Z,6.60
2019-06-20T15:22:25.476Z,6.60
2019-06-20T15:25:15.401Z,7.80
2019-06-20T15:28:04.496Z,6.80
2019-06-20T15:30:54.859Z,6.53
2019-06-20T15:33:44.161Z,6.77
2019-06-20T15:36:33.240Z,7.03
2019-06-20T15:39:22.487Z,6.40
2019-06-20T15:42:11.693Z,6.90
2019-06-20T15:45:00.526Z,6.43
2019-06-20T15:47:49.334Z,5.23
2019-06-20T15:50:38.330Z,6.00
2019-06-20T15:53:27.158Z,5.10
2019-06-20T15:56:16.612Z,5.00
2019-06-20T15:59:06.046Z,6.33
2019-06-20T16:01:57.530Z,6.00
2019-06-20T16:04:46.247Z,6.23
2019-06-20T16:07:35.356Z,5.70
2019-06-20T16:10:25.518Z,8.20
2019-06-20T16:13:14.568Z,6.77
2019-06-20T16:16:03.454Z,17.77
2019-06-20T16:18:52.748Z,8.13
2019-06-20T16:21:41.985Z,8.50
2019-06-20T16:24:31.420Z,8.43
2019-06-20T16:27:20.638Z,10.60
2019-06-20T16:30:10.825Z,9.50
2019-06-20T16:32:59.432Z,10.10
2019-06-20T16:35:48.528Z,8.80
2019-06-20T16:38:37.910Z,8.20
2019-06-20T16:41:27.113Z,8.80
2019-06-20T16:44:16.358Z,8.70
2019-06-20T16:47:05.790Z,8.17
2019-06-20T16:49:55.222Z,8.70
2019-06-20T16:52:44.771Z,11.03
2019-06-20T16:55:33.868Z,8.90
2019-06-20T16:58:23.046Z,11.40
2019-06-20T17:01:12.155Z,9.13
2019-06-20T17:04:01.463Z,8.43
2019-06-20T17:06:50.682Z,7.83
2019-06-20T17:09:39.879Z,10.70
2019-06-20T17:12:28.641Z,9.23
2019-06-20T17:15:18.003Z,9.27
2019-06-20T17:18:07.007Z,9.60
2019-06-20T17:20:56.348Z,15.57
2019-06-20T17:23:45.580Z,27.97
2019-06-20T17:26:34.382Z,22.43
2019-06-20T17:29:23.916Z,27.27
2019-06-20T17:32:12.985Z,28.77
2019-06-20T17:35:02.131Z,31.40
2019-06-20T17:37:51.484Z,28.57
2019-06-20T17:40:41.127Z,25.53
2019-06-20T17:43:31.048Z,30.73
2019-06-20T17:46:20.069Z,31.17
2019-06-20T17:49:09.434Z,33.97
2019-06-20T17:51:58.802Z,27.97
2019-06-20T17:54:48.541Z,28.90
2019-06-20T17:57:38.238Z,27.93
2019-06-20T18:00:28.726Z,25.03
2019-06-20T18:03:18.262Z,25.27
2019-06-20T18:06:07.552Z,18.83
2019-06-20T18:08:57.326Z,24.80
2019-06-20T18:11:47.199Z,25.97
2019-06-20T18:14:37.099Z,25.13
2019-06-20T18:17:27.204Z,26.73
2019-06-20T18:20:17.037Z,28.07
2019-06-20T18:23:06.514Z,26.00
2019-06-20T18:25:55.756Z,28.40
2019-06-20T18:28:44.399Z,32.00
2019-06-20T18:31:33.843Z,32.43
2019-06-20T18:34:30.062Z,43.40
2019-06-20T18:37:27.678Z,39.67
2019-06-20T18:40:04.886Z,40.37
2019-06-20T18:42:54.541Z,45.50
2019-06-20T18:45:43.258Z,51.93
2019-06-20T18:48:32.387Z,51.73
2019-06-20T18:51:21.151Z,58.33
2019-06-20T18:54:10.385Z,53.93
2019-06-20T18:56:59.656Z,59.07
2019-06-20T18:59:48.914Z,60.77
2019-06-20T19:02:38.446Z,55.30
2019-06-20T19:05:27.864Z,67.30
2019-06-20T19:08:16.853Z,68.07
2019-06-20T19:11:05.782Z,60.80
2019-06-20T19:13:54.841Z,62.67
2019-06-20T19:16:44.246Z,68.87
2019-06-20T19:19:33.413Z,75.10
2019-06-20T19:22:22.322Z,69.60
2019-06-20T19:25:11.898Z,56.20
2019-06-20T19:28:01.850Z,69.83
2019-06-20T19:30:53.240Z,69.00
2019-06-20T19:33:41.885Z,68.50
2019-06-20T19:36:31.396Z,72.90
2019-06-20T19:39:20.722Z,68.67
2019-06-20T19:42:09.518Z,74.70
2019-06-20T19:44:58.542Z,70.57
2019-06-20T19:47:47.875Z,68.97
2019-06-20T19:50:36.904Z,73.73
2019-06-20T19:53:25.592Z,79.77
2019-06-20T19:56:14.875Z,77.17
2019-06-20T19:59:04.705Z,80.90
2019-06-20T20:01:53.803Z,79.43
2019-06-20T20:04:44.277Z,88.63
2019-06-20T20:07:33.512Z,94.57
2019-06-20T20:10:33.927Z,89.57
2019-06-20T20:13:22.763Z,96.13
2019-06-20T20:16:11.935Z,89.77
2019-06-20T20:19:01.444Z,102.37
2019-06-20T20:21:50.739Z,94.17
2019-06-20T20:24:40.004Z,98.23
2019-06-20T20:27:29.013Z,94.40
2019-06-20T20:30:18.010Z,100.00
2019-06-20T20:33:07.374Z,103.43
2019-06-20T20:35:56.789Z,113.10
2019-06-20T20:38:45.800Z,123.33
2019-06-20T20:41:35.144Z,121.97
2019-06-20T20:44:24.271Z,106.60
2019-06-20T20:47:12.823Z,112.47
2019-06-20T20:50:02.205Z,113.30
2019-06-20T20:52:51.278Z,107.00
2019-06-20T20:55:40.245Z,116.70
2019-06-20T20:58:29.368Z,113.13
2019-06-20T21:01:35.508Z,133.17
2019-06-20T21:04:23.628Z,123.20
2019-06-20T21:07:12.454Z,123.07
2019-06-20T21:10:01.652Z,138.97
2019-06-20T21:12:51.101Z,125.97
2019-06-20T21:15:40.081Z,130.40
2019-06-20T21:18:29.521Z,115.87
2019-06-20T21:21:19.137Z,124.93
2019-06-20T21:24:08.946Z,137.90
2019-06-20T21:26:58.612Z,132.40
2019-06-20T21:29:57.386Z,136.60
2019-06-20T21:32:46.110Z,141.07
2019-06-20T21:35:35.225Z,140.73
2019-06-20T21:38:24.651Z,149.07
2019-06-20T21:41:13.641Z,140.27
2019-06-20T21:44:02.779Z,128.40
2019-06-20T21:46:52.361Z,124.63
2019-06-20T21:49:41.875Z,147.73
2019-06-20T21:52:30.711Z,106.17
2019-06-20T21:55:20.087Z,120.13
2019-06-20T21:58:08.979Z,96.97
2019-06-20T22:01:00.519Z,118.77
2019-06-20T22:03:49.203Z,135.27
2019-06-20T22:06:37.792Z,118.27
2019-06-20T22:09:27.122Z,129.87
2019-06-20T22:12:16.641Z,125.80
2019-06-20T22:15:08.243Z,106.43
2019-06-20T22:17:57.380Z,104.10
2019-06-20T22:20:46.271Z,116.33
2019-06-20T22:23:34.919Z,123.60
2019-06-20T22:26:24.430Z,108.83
2019-06-20T22:29:13.628Z,114.80
2019-06-20T22:32:02.803Z,133.07
2019-06-20T22:34:51.405Z,116.70
2019-06-20T22:37:40.745Z,112.47
2019-06-20T22:40:29.865Z,93.70
2019-06-20T22:43:19.325Z,103.07
2019-06-20T22:46:08.757Z,98.00
2019-06-20T22:48:57.731Z,104.63
2019-06-20T22:51:46.749Z,103.20
2019-06-20T22:54:36.048Z,96.97
2019-06-20T22:57:25.375Z,99.33
2019-06-20T23:00:14.614Z,102.73
2019-06-20T23:03:03.834Z,102.47
2019-06-20T23:05:52.792Z,96.63
2019-06-20T23:08:41.802Z,101.50
2019-06-20T23:11:31.025Z,93.10
2019-06-20T23:14:20.617Z,91.57
2019-06-20T23:17:09.086Z,76.83
2019-06-20T23:19:58.358Z,81.67
2019-06-20T23:22:47.241Z,73.87
2019-06-20T23:25:38.105Z,81.63
2019-06-20T23:28:27.003Z,66.20
2019-06-20T23:31:16.921Z,55.87
2019-06-20T23:34:06.045Z,65.37
2019-06-20T23:36:54.696Z,58.87
2019-06-20T23:39:43.973Z,63.20
2019-06-20T23:42:32.767Z,67.90
2019-06-20T23:45:22.043Z,64.40
2019-06-20T23:48:11.094Z,54.37
2019-06-20T23:51:00.386Z,52.40
2019-06-20T23:53:49.532Z,51.40
2019-06-20T23:56:38.285Z,56.27
2019-06-20T23:59:27.195Z,53.70
